KMCC/MCC METAR and TAF weather

Enter ICAO airport designator
Station Type Date Time Source
KMCC METAR 2019/08/25 06:40 UTC NOAA

KMCC 250640Z AUTO 15008KT CLR 24/12 A2992 RMK AO2


Station Type Date Time Source
KMCC Decoded METAR 2019/08/25 06:40 UTC NOAA

Station name not available
Aug 25, 2019 - 02:40 AM EDT / 2019.08.25 0640 UTC
Wind: from the SSE (150 degrees) at 9 MPH (8 KT):0
Sky conditions: clear
Temperature: 75 F (24 C)
Dew Point: 53 F (12 C)
Relative Humidity: 46%
Pressure (altimeter): 29.92 in. Hg (1013 hPa)
ob: KMCC 250640Z AUTO 15008KT CLR 24/12 A2992 RMK AO2
cycle: 6

Station Type Date Time Source
KMCC TAF 2019/08/25 06:30 UTC NOAA

TAF KMCC 250525Z 2506/2606 17007KT P6SM SKC
FM251900 22008KT P6SM SKC

Example: see airport list